^^
Grace C. Lehan Memorial Weather Station Historical Data
Daily Summary for December 12, 2021 Units:  Metric    English   Both
Daily Weekly Monthly Yearly
  High: Low: Average:
Temperature: 14.1 °C 2.1 °C 6.6 °C
Dew Point: 8.2 °C -5.9 °C -2.2 °C
Humidity: 74.9% 36.4% 54%
Wind Speed: 20.3km/h 0km/h 6.8km/h
Wind Gust: 46.7km/h - -
Wind- - WNW
Pressure: 1021.2 hPa 999.9 hPa -
Precipitation: 0 mm    
 
 
Tabular Data for December 12, 2021
Time Temperature Dew Point Pressure Wind Wind Speed Wind Gust Humidity Rainfall Rate (Hourly) solar
00:04 13.9 °C 8.1 °C 999.9 hPa WSW 5 km/h 27.4 km/h 68% 1.52 mm 0 W/m2
00:09 14 °C 7.9 °C 1000.2 hPa WSW 6.9 km/h 25.7 km/h 66.9% 0 mm 0 W/m2
00:14 14.1 °C 7.4 °C 1000.6 hPa WSW 6.3 km/h 25.7 km/h 64.3% 0 mm 0 W/m2
00:19 14.1 °C 7.1 °C 1000.9 hPa WNW 14.8 km/h 33.8 km/h 62.7% 0 mm 0 W/m2
00:24 14.1 °C 8.1 °C 1001.2 hPa NW 15.9 km/h 37 km/h 67.1% 0 mm 0 W/m2
00:29 13.4 °C 8.2 °C 1001.2 hPa NW 13.7 km/h 37 km/h 70.8% 0 mm 0 W/m2
00:34 12.6 °C 7.8 °C 1001.9 hPa NW 16.6 km/h 37 km/h 72.5% 0 mm 0 W/m2
00:39 12 °C 7.5 °C 1002.3 hPa NW 15.9 km/h 30.6 km/h 74% 0 mm 0 W/m2
00:44 11.6 °C 7.1 °C 1002.6 hPa NW 15.4 km/h 33.8 km/h 74.2% 0 mm 0 W/m2
00:49 11.3 °C 6.8 °C 1002.9 hPa NW 14 km/h 33.8 km/h 74.3% 0 mm 0 W/m2
00:54 11.1 °C 6.8 °C 1002.9 hPa NW 10.5 km/h 33.8 km/h 74.9% 0 mm 0 W/m2
00:59 10.9 °C 6.5 °C 1002.9 hPa WNW 14.6 km/h 33.8 km/h 74.3% 0 mm 0 W/m2
01:04 10.8 °C 6.1 °C 1003.3 hPa NW 14.5 km/h 35.4 km/h 73% 0 mm 0 W/m2
01:09 10.6 °C 5.6 °C 1003.6 hPa WNW 17.4 km/h 35.4 km/h 71.1% 0 mm 0 W/m2
01:14 10.4 °C 5.3 °C 1003.9 hPa NW 9.2 km/h 35.4 km/h 70.5% 0 mm 0 W/m2
01:19 10.3 °C 5.3 °C 1003.9 hPa NW 10.8 km/h 35.4 km/h 71.1% 0 mm 0 W/m2
01:24 10.2 °C 4.4 °C 1004.3 hPa NW 9.3 km/h 35.4 km/h 67.5% 0 mm 0 W/m2
01:29 9.9 °C 3.7 °C 1004.6 hPa NW 14.6 km/h 35.4 km/h 65.1% 0 mm 0 W/m2
01:34 9.7 °C 3.4 °C 1004.6 hPa NW 11.4 km/h 35.4 km/h 64.7% 0 mm 0 W/m2
01:39 9.6 °C 3.1 °C 1004.6 hPa NW 10 km/h 25.7 km/h 64.1% 0 mm 0 W/m2
01:44 9.4 °C 2.8 °C 1005 hPa NW 10.9 km/h 29 km/h 63.4% 0 mm 0 W/m2
01:49 9.2 °C 2.8 °C 1005 hPa NW 8.4 km/h 29 km/h 63.9% 0 mm 0 W/m2
01:54 9.1 °C 2.6 °C 1005.3 hPa NW 10 km/h 29 km/h 63.5% 0 mm 0 W/m2
01:59 9 °C 2.3 °C 1006 hPa WNW 10.9 km/h 29 km/h 63% 0 mm 0 W/m2
02:04 8.9 °C 2.4 °C 1006 hPa WNW 5 km/h 29 km/h 63.3% 0 mm 0 W/m2
02:09 8.9 °C 2.3 °C 1006.3 hPa WNW 5.3 km/h 24.1 km/h 63.2% 0 mm 0 W/m2
02:14 8.9 °C 2.4 °C 1006.3 hPa WNW 6.8 km/h 30.6 km/h 63.8% 0 mm 0 W/m2
02:19 8.8 °C 1.8 °C 1006.7 hPa WNW 16.7 km/h 30.6 km/h 61.5% 0 mm 0 W/m2
02:24 8.8 °C 1.7 °C 1006.7 hPa WNW 8.4 km/h 30.6 km/h 61% 0 mm 0 W/m2
02:29 8.8 °C 1.6 °C 1006.7 hPa WNW 14.2 km/h 30.6 km/h 60.4% 0 mm 0 W/m2
02:34 8.8 °C 1.4 °C 1006.7 hPa West 12.1 km/h 30.6 km/h 59.8% 0 mm 0 W/m2
02:39 8.7 °C 1.3 °C 1006.7 hPa WNW 14.2 km/h 25.7 km/h 59.8% 0 mm 0 W/m2
02:44 8.7 °C 1.3 °C 1007 hPa WNW 10.5 km/h 27.4 km/h 59.8% 0 mm 0 W/m2
02:49 8.6 °C 1.1 °C 1006.7 hPa WNW 14 km/h 32.2 km/h 59.3% 0 mm 0 W/m2
02:54 8.5 °C 1 °C 1007 hPa WNW 13.4 km/h 32.2 km/h 59.4% 0 mm 0 W/m2
02:59 8.4 °C 0.9 °C 1007 hPa WNW 14.5 km/h 32.2 km/h 59% 0 mm 0 W/m2
03:04 8.3 °C 1 °C 1007.3 hPa WNW 8 km/h 32.2 km/h 59.8% 0 mm 0 W/m2
03:09 8.3 °C 0.9 °C 1007.3 hPa WNW 6.1 km/h 25.7 km/h 60% 0 mm 0 W/m2
03:14 8.2 °C 0.8 °C 1007.3 hPa WNW 13.5 km/h 32.2 km/h 59.6% 0 mm 0 W/m2
03:19 8.1 °C 0.6 °C 1007.7 hPa WNW 19.2 km/h 37 km/h 59% 0 mm 0 W/m2
03:24 8.1 °C 0.5 °C 1007.7 hPa WNW 10.1 km/h 37 km/h 59% 0 mm 0 W/m2
03:29 8 °C 0.4 °C 1007.7 hPa WNW 14.8 km/h 37 km/h 59% 0 mm 0 W/m2
03:34 7.9 °C 0.1 °C 1007.7 hPa WNW 19.2 km/h 37 km/h 57.7% 0 mm 0 W/m2
03:36 7.9 °C 0.1 °C 1007.7 hPa WNW 18.7 km/h 35.4 km/h 57.8% 0 mm 0 W/m2
04:09 7.4 °C -0.5 °C 1008.7 hPa WNW 15.4 km/h 35.4 km/h 57% 0 mm 0 W/m2
04:14 7.4 °C -0.6 °C 1009 hPa NW 10.5 km/h 35.4 km/h 57.2% 0 mm 0 W/m2
04:19 7.3 °C -0.7 °C 1009.4 hPa NW 20.3 km/h 35.4 km/h 56.9% 0 mm 0 W/m2
04:24 7.2 °C -1.1 °C 1009.4 hPa NW 20.3 km/h 35.4 km/h 55.6% 0 mm 0 W/m2
04:29 7.2 °C -1.2 °C 1009.4 hPa WNW 11.4 km/h 35.4 km/h 55.5% 0 mm 0 W/m2
04:34 7.1 °C -1.1 °C 1009.7 hPa WNW 10.1 km/h 35.4 km/h 56% 0 mm 0 W/m2
04:39 6.9 °C -1.2 °C 1009.7 hPa WNW 13 km/h 24.1 km/h 56.1% 0 mm 0 W/m2
04:44 6.9 °C -1.4 °C 1009.7 hPa WNW 12.2 km/h 27.4 km/h 55.5% 0 mm 0 W/m2
04:49 6.8 °C -1.8 °C 1010 hPa NW 14.3 km/h 33.8 km/h 54.2% 0 mm 0 W/m2
04:54 6.8 °C -2.1 °C 1010 hPa WNW 16.3 km/h 46.7 km/h 53.1% 0 mm 0 W/m2
04:59 6.8 °C -2.1 °C 1010 hPa WNW 13.5 km/h 46.7 km/h 53% 0 mm 0 W/m2
05:04 6.8 °C -2.1 °C 1010.7 hPa WNW 13.8 km/h 46.7 km/h 53.2% 0 mm 0 W/m2
05:09 6.7 °C -2.1 °C 1010.7 hPa WNW 14.5 km/h 33.8 km/h 53.3% 0 mm 0 W/m2
05:14 6.7 °C -2.1 °C 1010.7 hPa WNW 11.4 km/h 33.8 km/h 53.3% 0 mm 0 W/m2
05:19 6.7 °C -2 °C 1010.7 hPa WNW 8.2 km/h 33.8 km/h 54% 0 mm 0 W/m2
05:24 6.6 °C -2 °C 1010.7 hPa WNW 7.6 km/h 33.8 km/h 54.4% 0 mm 0 W/m2
05:29 6.5 °C -1.8 °C 1011.1 hPa WNW 5.1 km/h 33.8 km/h 55.5% 0 mm 0 W/m2
05:34 6.4 °C -2.1 °C 1011.1 hPa WNW 15.4 km/h 33.8 km/h 54.4% 0 mm 0 W/m2
05:39 6.4 °C -2.1 °C 1011.1 hPa WNW 7.7 km/h 32.2 km/h 54.8% 0 mm 0 W/m2
05:44 6.3 °C -2.1 °C 1011.1 hPa WNW 9.3 km/h 32.2 km/h 55% 0 mm 0 W/m2
05:49 6.2 °C -2.2 °C 1011.1 hPa WNW 17.7 km/h 37 km/h 54.7% 0 mm 0 W/m2
05:54 6.2 °C -2.2 °C 1010.7 hPa WNW 11.1 km/h 37 km/h 55% 0 mm 0 W/m2
05:59 6.2 °C -2.2 °C 1011.1 hPa NW 12.9 km/h 37 km/h 55% 0 mm 0 W/m2
06:04 6.1 °C -2.2 °C 1011.1 hPa NW 7.2 km/h 37 km/h 55% 0 mm 0 W/m2
06:09 6.1 °C -2.2 °C 1011.4 hPa WNW 12.4 km/h 27.4 km/h 55.3% 0 mm 0 W/m2
06:14 6.1 °C -2.5 °C 1011.4 hPa NW 10.1 km/h 27.4 km/h 54.2% 0 mm 0 W/m2
06:19 6.1 °C -2.4 °C 1011.4 hPa WNW 6.4 km/h 27.4 km/h 54.6% 0 mm 0 W/m2
06:24 6 °C -2.5 °C 1011.7 hPa NW 11.3 km/h 29 km/h 54.3% 0 mm 0 W/m2
06:29 6 °C -2.6 °C 1011.7 hPa WNW 4.7 km/h 29 km/h 54% 0 mm 0 W/m2
06:34 5.9 °C -2.7 °C 1012.1 hPa WNW 6.3 km/h 29 km/h 54% 0 mm 0 W/m2
06:39 5.9 °C -2.7 °C 1012.4 hPa WNW 6.6 km/h 22.5 km/h 54.1% 0 mm 0 W/m2
06:44 5.8 °C -2.7 °C 1012.4 hPa WNW 17.1 km/h 33.8 km/h 54.2% 0 mm 0 W/m2
06:49 5.8 °C -2.6 °C 1012.4 hPa WNW 16.1 km/h 33.8 km/h 54.9% 0 mm 0 W/m2
06:54 5.7 °C -2.4 °C 1012.8 hPa NW 11.4 km/h 33.8 km/h 56% 0 mm 0 W/m2
06:59 5.6 °C -2.4 °C 1012.8 hPa WNW 11.9 km/h 33.8 km/h 56.5% 0 mm 0 W/m2
07:04 5.6 °C -2.3 °C 1012.8 hPa WNW 16.9 km/h 33.8 km/h 57% 0 mm 0 W/m2
07:09 5.5 °C -2.3 °C 1012.8 hPa WNW 13.2 km/h 33.8 km/h 57.1% 0 mm 0 W/m2
07:14 5.4 °C -2.2 °C 1013.4 hPa WNW 15.4 km/h 33.8 km/h 58% 0 mm 0 W/m2
07:19 5.4 °C -2.1 °C 1013.4 hPa WNW 14.5 km/h 37 km/h 58.4% 0 mm 0 W/m2
07:24 5.3 °C -2 °C 1013.8 hPa NW 9 km/h 37 km/h 59% 0 mm 5 W/m2
07:29 5.3 °C -2 °C 1013.8 hPa WNW 8.2 km/h 37 km/h 59.4% 0 mm 5 W/m2
07:34 5.3 °C -2 °C 1013.8 hPa WNW 8.4 km/h 37 km/h 59.5% 0 mm 7 W/m2
07:39 5.2 °C -1.8 °C 1013.8 hPa WNW 4.5 km/h 20.9 km/h 60.2% 0 mm 12 W/m2
07:44 5.2 °C -1.8 °C 1013.8 hPa NW 4.2 km/h 22.5 km/h 60.6% 0 mm 19 W/m2
07:49 5.1 °C -1.8 °C 1014.1 hPa WNW 7.1 km/h 24.1 km/h 61% 0 mm 19 W/m2
07:54 5 °C -1.9 °C 1014.1 hPa NW 8 km/h 24.1 km/h 61% 0 mm 40 W/m2
07:59 5.1 °C -1.8 °C 1014.1 hPa WNW 6.8 km/h 24.1 km/h 61.2% 0 mm 44 W/m2
08:00 5.1 °C -1.6 °C 1014.1 hPa NW 1.6 km/h 24.1 km/h 62% 0 mm 16 W/m2
08:09 5.1 °C -1.7 °C 1014.8 hPa West 6.9 km/h 19.3 km/h 61.3% 0 mm 9 W/m2
08:14 5.1 °C -1.8 °C 1014.8 hPa WNW 12.1 km/h 27.4 km/h 61% 0 mm 9 W/m2
08:19 5.2 °C -1.7 °C 1015.1 hPa WNW 7.7 km/h 27.4 km/h 61% 0 mm 19 W/m2
08:24 5.2 °C -1.7 °C 1014.8 hPa WNW 6.9 km/h 27.4 km/h 61% 0 mm 30 W/m2
08:29 5.2 °C -1.5 °C 1015.1 hPa WNW 3.2 km/h 27.4 km/h 61.9% 0 mm 51 W/m2
08:34 5.2 °C -1.6 °C 1015.1 hPa WNW 11.3 km/h 27.4 km/h 61.3% 0 mm 58 W/m2
08:39 5.3 °C -1.5 °C 1015.1 hPa WNW 9.3 km/h 24.1 km/h 61.4% 0 mm 63 W/m2
08:44 5.3 °C -1.6 °C 1015.1 hPa WNW 15.9 km/h 40.2 km/h 61% 0 mm 63 W/m2
08:49 5.4 °C -1.6 °C 1015.5 hPa WNW 12.1 km/h 40.2 km/h 60.5% 0 mm 86 W/m2
08:54 5.5 °C -1.6 °C 1015.8 hPa WNW 9 km/h 40.2 km/h 60.2% 0 mm 102 W/m2
08:59 5.6 °C -1.6 °C 1015.8 hPa NW 13.2 km/h 40.2 km/h 60% 0 mm 95 W/m2
09:04 5.7 °C -1.5 °C 1016.1 hPa WNW 14.5 km/h 40.2 km/h 60% 0 mm 74 W/m2
09:09 5.7 °C -1.6 °C 1016.1 hPa WNW 8.9 km/h 29 km/h 59.6% 0 mm 86 W/m2
09:14 5.7 °C -1.4 °C 1016.1 hPa WNW 13.2 km/h 29 km/h 60% 0 mm 91 W/m2
09:19 5.7 °C -1.4 °C 1016.5 hPa NW 5.8 km/h 29 km/h 60.2% 0 mm 74 W/m2
09:24 5.7 °C -1.4 °C 1016.1 hPa WNW 12.6 km/h 33.8 km/h 59.9% 0 mm 77 W/m2
09:29 5.7 °C -1.6 °C 1016.5 hPa WNW 5.1 km/h 33.8 km/h 59.3% 0 mm 105 W/m2
09:34 5.7 °C -1.5 °C 1016.8 hPa NW 5 km/h 33.8 km/h 59.5% 0 mm 128 W/m2
09:39 5.8 °C -1.4 °C 1016.8 hPa WNW 9.3 km/h 22.5 km/h 59.7% 0 mm 128 W/m2
09:44 5.9 °C -1.6 °C 1016.8 hPa WNW 8.9 km/h 24.1 km/h 58.5% 0 mm 113 W/m2
09:49 6 °C -1.6 °C 1016.8 hPa WNW 9.5 km/h 27.4 km/h 58.2% 0 mm 109 W/m2
09:54 6.1 °C -1.5 °C 1016.8 hPa WNW 9.8 km/h 27.4 km/h 58.4% 0 mm 134 W/m2
09:59 6.1 °C -1 °C 1017.2 hPa WNW 4 km/h 27.4 km/h 60.2% 0 mm 220 W/m2
10:04 6.2 °C -1.1 °C 1017.2 hPa NW 7.7 km/h 27.4 km/h 59.4% 0 mm 146 W/m2
10:09 6.3 °C -1.3 °C 1017.5 hPa WNW 7.7 km/h 22.5 km/h 58.1% 0 mm 107 W/m2
10:14 6.3 °C -1.4 °C 1017.2 hPa NW 13.4 km/h 29 km/h 57.6% 0 mm 135 W/m2
10:19 6.3 °C -1.6 °C 1017.2 hPa WNW 9 km/h 29 km/h 57% 0 mm 174 W/m2
10:24 6.5 °C -1.3 °C 1017.2 hPa WNW 9.7 km/h 29 km/h 57.2% 0 mm 538 W/m2
10:29 6.8 °C -1.2 °C 1017.2 hPa WNW 10.3 km/h 29 km/h 56.6% 0 mm 538 W/m2
10:34 7.1 °C -1.1 °C 1017.2 hPa NW 12.4 km/h 29 km/h 56% 0 mm 221 W/m2
10:39 7.3 °C -1.2 °C 1017.2 hPa WNW 5 km/h 24.1 km/h 54.9% 0 mm 341 W/m2
10:44 7.4 °C -1.2 °C 1017.2 hPa NW 8.5 km/h 25.7 km/h 54.3% 0 mm 185 W/m2
10:49 7.4 °C -1.5 °C 1017.2 hPa WNW 11.4 km/h 37 km/h 53.3% 0 mm 142 W/m2
10:54 7.2 °C -1.9 °C 1017.5 hPa WNW 15.9 km/h 37 km/h 52.5% 0 mm 176 W/m2
10:59 6.9 °C -2.1 °C 1017.5 hPa NW 12.9 km/h 37 km/h 52.5% 0 mm 236 W/m2
11:04 6.8 °C -2 °C 1017.5 hPa WNW 8.5 km/h 37 km/h 53.3% 0 mm 236 W/m2
11:09 6.8 °C -1.8 °C 1017.5 hPa WNW 5.3 km/h 22.5 km/h 54% 0 mm 167 W/m2
11:14 6.9 °C -1.8 °C 1017.5 hPa NW 5.6 km/h 22.5 km/h 54% 0 mm 155 W/m2
11:19 6.9 °C -1.7 °C 1017.5 hPa WNW 6.4 km/h 22.5 km/h 53.9% 0 mm 144 W/m2
11:24 7 °C -2 °C 1017.5 hPa NW 11.1 km/h 32.2 km/h 52.8% 0 mm 162 W/m2
11:29 6.9 °C -1.9 °C 1017.5 hPa WNW 9.2 km/h 32.2 km/h 53% 0 mm 162 W/m2
11:34 7 °C -1.9 °C 1017.5 hPa WNW 7.2 km/h 32.2 km/h 53.2% 0 mm 338 W/m2
11:39 7.2 °C -1.6 °C 1017.2 hPa WNW 4.8 km/h 19.3 km/h 53.6% 0 mm 265 W/m2
11:44 7.6 °C -1.3 °C 1017.2 hPa WNW 8.4 km/h 29 km/h 53.2% 0 mm 207 W/m2
11:49 7.9 °C -1.2 °C 1017.2 hPa WNW 9.2 km/h 29 km/h 52.5% 0 mm 183 W/m2
11:54 8.3 °C -1.2 °C 1017.2 hPa NW 6.8 km/h 29 km/h 51.1% 0 mm 232 W/m2
11:59 8.5 °C -1.1 °C 1017.2 hPa WNW 6.8 km/h 29 km/h 50.8% 0 mm 223 W/m2
12:00 8.6 °C -1.2 °C 1017.2 hPa NW 7.2 km/h 29 km/h 50% 0 mm 125 W/m2
12:09 8.7 °C -1.3 °C 1017.5 hPa WNW 11.6 km/h 30.6 km/h 49.1% 0 mm 526 W/m2
12:14 8.6 °C -1.8 °C 1017.5 hPa WNW 10 km/h 30.6 km/h 48.1% 0 mm 473 W/m2
12:19 8.4 °C -1.6 °C 1017.5 hPa WNW 6.9 km/h 30.6 km/h 49.3% 0 mm 257 W/m2
12:24 8.3 °C -2 °C 1017.5 hPa WNW 14.5 km/h 30.6 km/h 48.3% 0 mm 102 W/m2
12:29 8.1 °C -1.9 °C 1017.5 hPa WNW 8.4 km/h 30.6 km/h 49% 0 mm 292 W/m2
12:34 8.1 °C -1.7 °C 1017.5 hPa NW 7.4 km/h 30.6 km/h 49.8% 0 mm 294 W/m2
12:39 8.2 °C -1.9 °C 1017.5 hPa WNW 9 km/h 19.3 km/h 49% 0 mm 466 W/m2
12:44 8.2 °C -2 °C 1017.2 hPa WNW 7.2 km/h 22.5 km/h 48.7% 0 mm 369 W/m2
12:49 8.2 °C -2.2 °C 1017.2 hPa NW 10.3 km/h 24.1 km/h 48.2% 0 mm 369 W/m2
12:54 8.1 °C -2.2 °C 1017.5 hPa WNW 9 km/h 24.1 km/h 48% 0 mm 183 W/m2
12:59 8.1 °C -2.3 °C 1017.2 hPa WNW 9.2 km/h 24.1 km/h 47.8% 0 mm 97 W/m2
13:04 8.2 °C -2.3 °C 1017.2 hPa WNW 6.1 km/h 24.1 km/h 47.8% 0 mm 424 W/m2
13:09 8.3 °C -2.4 °C 1017.5 hPa WNW 8.4 km/h 20.9 km/h 46.7% 0 mm 278 W/m2
13:14 8.5 °C -2.4 °C 1017.5 hPa NW 6.4 km/h 20.9 km/h 46.2% 0 mm 272 W/m2
13:19 8.6 °C -2.5 °C 1017.8 hPa WNW 6.1 km/h 20.9 km/h 45.6% 0 mm 295 W/m2
13:24 8.7 °C -2.7 °C 1017.8 hPa WNW 9.3 km/h 25.7 km/h 44.6% 0 mm 334 W/m2
13:29 8.7 °C -3.1 °C 1017.5 hPa WNW 11.9 km/h 30.6 km/h 43.1% 0 mm 107 W/m2
13:34 8.6 °C -3.7 °C 1017.5 hPa WNW 14 km/h 32.2 km/h 41.5% 0 mm 232 W/m2
13:39 8.5 °C -3.8 °C 1017.5 hPa WNW 10.1 km/h 32.2 km/h 41.7% 0 mm 179 W/m2
13:44 8.5 °C -3.9 °C 1017.5 hPa WNW 11.9 km/h 32.2 km/h 41.4% 0 mm 163 W/m2
13:49 8.4 °C -3.8 °C 1017.5 hPa WNW 4.8 km/h 32.2 km/h 41.7% 0 mm 174 W/m2
13:54 8.4 °C -3.9 °C 1017.5 hPa WNW 4.8 km/h 32.2 km/h 41.6% 0 mm 267 W/m2
13:59 8.6 °C -3.7 °C 1017.5 hPa WNW 5 km/h 32.2 km/h 41.6% 0 mm 297 W/m2
14:04 8.8 °C -3.9 °C 1017.8 hPa West 7.1 km/h 32.2 km/h 40.4% 0 mm 244 W/m2
14:09 8.9 °C -4.2 °C 1017.8 hPa WNW 7.7 km/h 27.4 km/h 39.2% 0 mm 232 W/m2
14:14 9 °C -4.1 °C 1017.8 hPa West 2.9 km/h 27.4 km/h 39.5% 0 mm 167 W/m2
14:19 9 °C -4.1 °C 1017.8 hPa WNW 5.1 km/h 27.4 km/h 39.5% 0 mm 81 W/m2
14:24 8.9 °C -4.8 °C 1017.8 hPa WNW 8 km/h 27.4 km/h 37.4% 0 mm 255 W/m2
14:29 8.8 °C -4.1 °C 1017.8 hPa West 3.4 km/h 27.4 km/h 39.9% 0 mm 232 W/m2
14:34 8.8 °C -3.8 °C 1017.8 hPa WNW 5.5 km/h 27.4 km/h 40.7% 0 mm 47 W/m2
14:39 8.8 °C -3.9 °C 1017.8 hPa WNW 6.8 km/h 19.3 km/h 40.3% 0 mm 26 W/m2
14:44 8.8 °C -4.3 °C 1017.8 hPa WNW 8.7 km/h 22.5 km/h 39.3% 0 mm 26 W/m2
14:49 8.8 °C -4.3 °C 1017.8 hPa WNW 6 km/h 22.5 km/h 39.2% 0 mm 26 W/m2
14:54 8.7 °C -4 °C 1018.2 hPa WNW 2.7 km/h 22.5 km/h 40.5% 0 mm 25 W/m2
14:59 8.6 °C -3.7 °C 1018.2 hPa WNW 3.2 km/h 22.5 km/h 41.7% 0 mm 25 W/m2
15:04 8.6 °C -4.6 °C 1018.2 hPa WNW 9.3 km/h 22.5 km/h 39.2% 0 mm 23 W/m2
15:09 8.5 °C -4.9 °C 1018.5 hPa WNW 4 km/h 19.3 km/h 38.1% 0 mm 21 W/m2
15:14 8.5 °C -4.6 °C 1018.2 hPa West 0.8 km/h 19.3 km/h 39.2% 0 mm 21 W/m2
15:19 8.4 °C -4.7 °C 1018.5 hPa West 3.9 km/h 20.9 km/h 39.1% 0 mm 19 W/m2
15:24 8.4 °C -5.4 °C 1018.5 hPa West 5.8 km/h 20.9 km/h 37% 0 mm 19 W/m2
15:29 8.3 °C -5.4 °C 1018.2 hPa West 6.6 km/h 22.5 km/h 37.2% 0 mm 18 W/m2
15:34 8.2 °C -5.7 °C 1018.2 hPa WNW 7.1 km/h 22.5 km/h 36.6% 0 mm 18 W/m2
15:39 8.1 °C -5.9 °C 1018.5 hPa West 2.6 km/h 20.9 km/h 36.4% 0 mm 16 W/m2
15:44 8.1 °C -5.8 °C 1018.5 hPa WNW 1.9 km/h 20.9 km/h 36.9% 0 mm 14 W/m2
15:49 7.9 °C -5.9 °C 1018.5 hPa West 0.2 km/h 20.9 km/h 36.9% 0 mm 14 W/m2
15:54 7.9 °C -5.7 °C 1018.8 hPa West 0.3 km/h 20.9 km/h 37.7% 0 mm 12 W/m2
15:59 7.8 °C -5.4 °C 1018.8 hPa West 0.3 km/h 20.9 km/h 38.6% 0 mm 11 W/m2
16:09 7.5 °C -5.3 °C 1018.8 hPa WSW 1.6 km/h 11.3 km/h 39.8% 0 mm 7 W/m2
16:14 7.3 °C -5.4 °C 1018.8 hPa WSW 0.3 km/h 11.3 km/h 40% 0 mm 5 W/m2
16:19 7.2 °C -5.2 °C 1018.8 hPa Calm   11.3 km/h 40.9% 0 mm 0 W/m2
16:24 7.1 °C -5.3 °C 1019.2 hPa WSW 0.2 km/h 11.3 km/h 41% 0 mm 0 W/m2
16:29 6.9 °C -5.3 °C 1019.2 hPa Calm   11.3 km/h 41.6% 0 mm 0 W/m2
16:34 6.8 °C -5.3 °C 1018.8 hPa WSW 0.2 km/h 11.3 km/h 42% 0 mm 0 W/m2
16:39 6.6 °C -5.4 °C 1019.2 hPa WSW 0.2 km/h 3.2 km/h 42% 0 mm 0 W/m2
16:44 6.4 °C -5.5 °C 1019.2 hPa Calm   3.2 km/h 42.1% 0 mm 0 W/m2
16:49 6.3 °C -5.5 °C 1019.2 hPa WSW 0.2 km/h 3.2 km/h 42.7% 0 mm 0 W/m2
16:54 6.2 °C -5.5 °C 1019.2 hPa WSW 0.2 km/h 3.2 km/h 43% 0 mm 0 W/m2
16:59 6 °C -5.5 °C 1019.2 hPa Calm   3.2 km/h 43.3% 0 mm 0 W/m2
17:04 5.9 °C -4.9 °C 1019.2 hPa Calm   3.2 km/h 45.6% 0 mm 0 W/m2
17:09 5.8 °C -4.5 °C 1019.2 hPa Calm     47.5% 0 mm 0 W/m2
17:14 5.7 °C -4.7 °C 1019.2 hPa Calm     47.1% 0 mm 0 W/m2
17:19 5.6 °C -4.4 °C 1019.5 hPa Calm     48.2% 0 mm 0 W/m2
17:24 5.6 °C -4.6 °C 1019.5 hPa Calm     47.6% 0 mm 0 W/m2
17:29 5.6 °C -4.8 °C 1019.5 hPa Calm     47% 0 mm 0 W/m2
17:34 5.6 °C -4.9 °C 1019.5 hPa Calm     47% 0 mm 0 W/m2
17:39 5.5 °C -4.9 °C 1019.5 hPa Calm     47% 0 mm 0 W/m2
17:44 5.5 °C -4.7 °C 1019.5 hPa Calm     47.7% 0 mm 0 W/m2
17:49 5.5 °C -4.9 °C 1019.5 hPa Calm     47% 0 mm 0 W/m2
17:54 5.5 °C -4.7 °C 1019.5 hPa Calm     47.8% 0 mm 0 W/m2
17:59 5.4 °C -4.8 °C 1019.5 hPa Calm     47.7% 0 mm 0 W/m2
18:04 5.3 °C -4.8 °C 1019.5 hPa Calm     47.9% 0 mm 0 W/m2
18:09 5.3 °C -5.1 °C 1019.9 hPa Calm     47% 0 mm 0 W/m2
18:14 5.1 °C -5.3 °C 1019.9 hPa Calm     47% 0 mm 0 W/m2
18:19 4.9 °C -5.3 °C 1019.9 hPa Calm     47.3% 0 mm 0 W/m2
18:24 4.8 °C -5.3 °C 1019.9 hPa Calm     48% 0 mm 0 W/m2
18:29 4.6 °C -5.4 °C 1019.9 hPa Calm     48.3% 0 mm 0 W/m2
18:34 4.5 °C -5.1 °C 1019.5 hPa Calm     49.6% 0 mm 0 W/m2
18:39 4.4 °C -5.2 °C 1019.9 hPa Calm     49.6% 0 mm 0 W/m2
18:44 4.3 °C -5.3 °C 1019.9 hPa Calm     49.9% 0 mm 0 W/m2
18:49 4.2 °C -5.3 °C 1019.9 hPa Calm     50.3% 0 mm 0 W/m2
18:54 4 °C -5.3 °C 1019.9 hPa Calm     50.5% 0 mm 0 W/m2
18:59 3.9 °C -5.1 °C 1019.9 hPa Calm     51.8% 0 mm 0 W/m2
19:04 3.7 °C -5.4 °C 1019.9 hPa Calm     51.1% 0 mm 0 W/m2
19:09 3.6 °C -5.6 °C 1020.2 hPa Calm     51% 0 mm 0 W/m2
19:14 3.4 °C -5.6 °C 1020.2 hPa Calm     51.6% 0 mm 0 W/m2
19:19 3.3 °C -5.4 °C 1020.2 hPa Calm     52.7% 0 mm 0 W/m2
19:24 3.2 °C -5.6 °C 1020.5 hPa Calm     52.5% 0 mm 0 W/m2
19:29 3.1 °C -5.7 °C 1020.5 hPa Calm     52.3% 0 mm 0 W/m2
19:34 2.9 °C -5.7 °C 1020.5 hPa Calm     53% 0 mm 0 W/m2
19:39 2.8 °C -5.5 °C 1020.5 hPa Calm     54.2% 0 mm 0 W/m2
19:44 2.8 °C -5.3 °C 1020.5 hPa Calm   1.6 km/h 55.2% 0 mm 0 W/m2
19:49 2.7 °C -5.4 °C 1020.5 hPa Calm   1.6 km/h 55.2% 0 mm 0 W/m2
19:54 2.7 °C -5.4 °C 1020.5 hPa Calm   1.6 km/h 55% 0 mm 0 W/m2
19:59 2.7 °C -5.4 °C 1020.5 hPa Calm   1.6 km/h 55% 0 mm 0 W/m2
20:00 2.7 °C -5.6 °C 1020.5 hPa Calm   1.6 km/h 54.5% 0 mm 0 W/m2
20:09 2.8 °C -5.1 °C 1020.5 hPa Calm   1.6 km/h 56% 0 mm 0 W/m2
20:14 3 °C -5.3 °C 1020.9 hPa Calm   1.6 km/h 54.6% 0 mm 0 W/m2
20:19 3.1 °C -5 °C 1020.9 hPa Calm   1.6 km/h 55.2% 0 mm 0 W/m2
20:24 3.2 °C -4.8 °C 1020.9 hPa Calm   1.6 km/h 55.4% 0 mm 0 W/m2
20:29 3.3 °C -5.2 °C 1020.9 hPa Calm   1.6 km/h 53.7% 0 mm 0 W/m2
20:34 3.4 °C -5.2 °C 1020.9 hPa Calm   1.6 km/h 53.5% 0 mm 0 W/m2
20:39 3.4 °C -4.8 °C 1020.9 hPa Calm     55% 0 mm 0 W/m2
20:44 3.4 °C -4.8 °C 1020.9 hPa Calm     54.8% 0 mm 0 W/m2
20:49 3.3 °C -4.9 °C 1020.9 hPa Calm     54.7% 0 mm 0 W/m2
20:54 3.2 °C -4.8 °C 1020.9 hPa Calm     55.8% 0 mm 0 W/m2
20:59 3.2 °C -4.7 °C 1020.9 hPa Calm     56.4% 0 mm 0 W/m2
21:04 3.2 °C -4.5 °C 1020.9 hPa WSW 0.2 km/h 1.6 km/h 57% 0 mm 0 W/m2
21:09 3.1 °C -4.7 °C 1020.9 hPa WSW 0.6 km/h 1.6 km/h 56.5% 0 mm 0 W/m2
21:14 3.1 °C -4.8 °C 1020.9 hPa WSW 0.6 km/h 3.2 km/h 56.2% 0 mm 0 W/m2
21:19 3.1 °C -4.8 °C 1020.9 hPa WSW 0.6 km/h 3.2 km/h 56% 0 mm 0 W/m2
21:24 3.2 °C -4.7 °C 1020.9 hPa Calm   3.2 km/h 56.4% 0 mm 0 W/m2
21:29 3.1 °C -4.6 °C 1020.9 hPa Calm   3.2 km/h 57% 0 mm 0 W/m2
21:34 2.9 °C -4.6 °C 1020.9 hPa Calm   3.2 km/h 57.7% 0 mm 0 W/m2
21:39 2.7 °C -4.7 °C 1021.2 hPa Calm     57.8% 0 mm 0 W/m2
21:44 2.5 °C -4.8 °C 1021.2 hPa Calm     58.6% 0 mm 0 W/m2
21:49 2.3 °C -4.9 °C 1021.2 hPa Calm     58.9% 0 mm 0 W/m2
21:54 2.2 °C -4.8 °C 1021.2 hPa Calm     60% 0 mm 0 W/m2
21:59 2.1 °C -5 °C 1021.2 hPa WSW 0.3 km/h 1.6 km/h 59.3% 0 mm 0 W/m2
22:04 2.3 °C -4.9 °C 1021.2 hPa WSW 0.3 km/h 1.6 km/h 59% 0 mm 0 W/m2
22:09 2.6 °C -4.8 °C 1021.2 hPa WSW 0.6 km/h 3.2 km/h 58% 0 mm 0 W/m2
22:14 2.9 °C -4.6 °C 1020.9 hPa WSW 0.3 km/h 3.2 km/h 57.6% 0 mm 0 W/m2
22:19 3.1 °C -4.6 °C 1021.2 hPa WSW 0.3 km/h 3.2 km/h 57% 0 mm 0 W/m2
22:24 3.2 °C -4.5 °C 1021.2 hPa WSW 0.2 km/h 3.2 km/h 57% 0 mm 0 W/m2
22:29 3.2 °C -4.5 °C 1021.2 hPa WSW 0.2 km/h 3.2 km/h 57% 0 mm 0 W/m2
22:34 3.1 °C -4.5 °C 1021.2 hPa WSW 0.2 km/h 3.2 km/h 57.6% 0 mm 0 W/m2
22:39 2.9 °C -4.6 °C 1021.2 hPa WSW 1 km/h 3.2 km/h 58% 0 mm 0 W/m2
22:44 2.7 °C -4.5 °C 1021.2 hPa WSW 1.3 km/h 3.2 km/h 58.9% 0 mm 0 W/m2
22:49 2.6 °C -4.6 °C 1020.9 hPa WSW 1.8 km/h 3.2 km/h 59.2% 0 mm 0 W/m2
22:54 2.6 °C -4.4 °C 1021.2 hPa WSW 1.9 km/h 4.8 km/h 60% 0 mm 0 W/m2
22:58 2.6 °C -4.4 °C 1021.2 hPa WSW 1.8 km/h 4.8 km/h 60% 0 mm 0 W/m2
Hartford County Weather
Compliments of Weather Underground - 2 mb